createdAt,value
2022-11-20T00:01:27.475Z,101145.19
2022-11-20T00:03:56.563Z,101147.56
2022-11-20T00:06:24.219Z,101146.75
2022-11-20T00:08:51.802Z,101142.25
2022-11-20T00:11:20.689Z,101143.22
2022-11-20T00:13:51.210Z,101047.06
2022-11-20T00:16:20.459Z,101140.66
2022-11-20T00:18:47.446Z,101090.00
2022-11-20T00:21:19.660Z,101103.22
2022-11-20T00:23:46.533Z,101142.44
2022-11-20T00:26:15.335Z,101138.69
2022-11-20T00:28:42.990Z,101145.59
2022-11-20T00:31:13.010Z,101149.03
2022-11-20T00:33:39.561Z,101049.13
2022-11-20T00:36:08.525Z,101146.03
2022-11-20T00:38:35.732Z,101141.00
2022-11-20T00:41:04.334Z,101131.25
2022-11-20T00:43:30.829Z,101133.31
2022-11-20T00:46:18.296Z,101124.75
2022-11-20T00:48:46.033Z,101037.81
2022-11-20T00:51:14.848Z,101130.31
2022-11-20T00:53:41.453Z,101123.78
2022-11-20T00:56:11.810Z,101045.13
2022-11-20T00:58:40.328Z,101143.06
2022-11-20T01:01:12.791Z,101013.91
2022-11-20T01:03:41.765Z,101127.75
2022-11-20T01:06:12.178Z,101121.97
2022-11-20T01:08:39.380Z,101138.25
2022-11-20T01:11:09.248Z,101127.06
2022-11-20T01:13:38.874Z,101047.13
2022-11-20T01:16:20.629Z,101011.56
2022-11-20T01:18:49.090Z,101130.06
2022-11-20T01:21:22.361Z,101121.25
2022-11-20T01:23:50.477Z,101113.69
2022-11-20T01:26:20.007Z,101090.41
2022-11-20T01:28:46.739Z,101012.91
2022-11-20T01:31:20.080Z,101103.13
2022-11-20T01:33:48.754Z,101106.97
2022-11-20T01:36:16.383Z,101113.63
2022-11-20T01:38:43.492Z,100982.69
2022-11-20T01:41:37.861Z,101035.00
2022-11-20T01:44:05.777Z,101099.13
2022-11-20T01:46:37.934Z,101052.19
2022-11-20T01:49:11.869Z,101091.91
2022-11-20T01:52:02.595Z,101093.38
2022-11-20T01:54:58.262Z,101094.94
2022-11-20T01:57:29.143Z,101081.88
2022-11-20T02:00:32.953Z,101084.81
2022-11-20T02:03:05.180Z,101087.63
2022-11-20T02:05:56.351Z,101083.69
2022-11-20T02:08:22.873Z,101082.31
2022-11-20T02:10:49.295Z,101028.34
2022-11-20T02:13:34.975Z,101076.66
2022-11-20T02:16:04.676Z,101065.59
2022-11-20T02:18:31.465Z,101073.84
2022-11-20T02:21:14.863Z,100961.34
2022-11-20T02:24:03.236Z,101071.84
2022-11-20T02:26:32.430Z,101073.03
2022-11-20T02:29:01.729Z,101065.28
2022-11-20T02:31:28.174Z,101061.25
2022-11-20T02:33:59.028Z,101062.78
2022-11-20T02:36:28.333Z,101059.38
2022-11-20T02:38:55.443Z,101056.66
2022-11-20T02:41:22.241Z,101059.25
2022-11-20T02:43:48.724Z,101066.28
2022-11-20T02:46:15.134Z,101005.00
2022-11-20T02:48:41.597Z,101063.31
2022-11-20T02:51:08.027Z,101047.50
2022-11-20T02:53:34.481Z,101048.97
2022-11-20T02:56:01.016Z,100957.88
2022-11-20T02:58:27.461Z,100979.00
2022-11-20T03:00:53.986Z,101008.41
2022-11-20T03:03:21.028Z,100979.88
2022-11-20T03:05:47.510Z,100705.03
2022-11-20T03:08:13.964Z,101037.03
2022-11-20T03:10:40.374Z,101039.00
2022-11-20T03:13:06.881Z,101035.75
2022-11-20T03:15:33.294Z,101040.75
2022-11-20T03:17:59.874Z,101048.09
2022-11-20T03:20:26.332Z,100993.50
2022-11-20T03:22:54.797Z,101027.25
2022-11-20T03:25:21.382Z,101037.09
2022-11-20T03:27:47.918Z,101048.19
2022-11-20T03:30:15.040Z,101037.25
2022-11-20T03:32:41.495Z,101004.72
2022-11-20T03:35:08.349Z,101041.34
2022-11-20T03:37:34.770Z,100990.38
2022-11-20T03:40:01.198Z,101031.91
2022-11-20T03:42:46.113Z,100954.59
2022-11-20T03:45:17.505Z,101035.31
2022-11-20T03:47:45.447Z,101037.91
2022-11-20T03:50:14.191Z,100952.94
2022-11-20T03:52:41.117Z,101019.13
2022-11-20T03:55:08.329Z,101022.59
2022-11-20T03:57:34.775Z,101015.88
2022-11-20T04:00:01.406Z,101024.91
2022-11-20T04:02:27.887Z,100953.63
2022-11-20T04:04:54.333Z,101017.34
2022-11-20T04:07:20.928Z,100954.03
2022-11-20T04:09:47.496Z,101020.47
2022-11-20T04:12:13.973Z,100966.53
2022-11-20T04:14:40.480Z,101015.81
2022-11-20T04:17:06.999Z,100975.50
2022-11-20T04:19:33.454Z,101007.22
2022-11-20T04:21:59.977Z,101014.19
2022-11-20T04:24:27.570Z,101012.16
2022-11-20T04:26:53.983Z,101007.28
2022-11-20T04:29:20.817Z,101008.91
2022-11-20T04:31:47.542Z,101008.06
2022-11-20T04:34:14.224Z,101001.00
2022-11-20T04:36:40.700Z,100999.59
2022-11-20T04:39:07.467Z,101009.16
2022-11-20T04:41:36.318Z,101005.63
2022-11-20T04:44:04.846Z,101000.00
2022-11-20T04:46:33.686Z,101004.69
2022-11-20T04:49:00.518Z,100947.75
2022-11-20T04:51:27.602Z,101001.31
2022-11-20T04:53:54.798Z,100999.22
2022-11-20T04:56:21.269Z,100998.38
2022-11-20T04:58:47.829Z,101001.09
2022-11-20T05:01:17.083Z,101002.53
2022-11-20T05:03:44.627Z,101003.88
2022-11-20T05:06:14.116Z,100987.88
2022-11-20T05:08:40.953Z,100982.63
2022-11-20T05:11:12.659Z,100982.78
2022-11-20T05:13:39.404Z,100977.81
2022-11-20T05:16:14.764Z,100951.38
2022-11-20T05:18:42.091Z,100910.13
2022-11-20T05:21:10.019Z,100979.09
2022-11-20T05:23:37.407Z,100975.03
2022-11-20T05:26:04.418Z,100962.13
2022-11-20T05:28:31.758Z,100889.53
2022-11-20T05:31:09.531Z,100965.88
2022-11-20T05:33:37.110Z,100965.31
2022-11-20T05:36:05.074Z,100951.56
2022-11-20T05:38:31.628Z,100967.75
2022-11-20T05:41:10.377Z,100954.69
2022-11-20T05:43:38.715Z,100954.47
2022-11-20T05:46:07.486Z,100958.41
2022-11-20T05:48:35.331Z,100915.09
2022-11-20T05:51:03.887Z,100956.28
2022-11-20T05:53:30.731Z,100951.44
2022-11-20T05:56:04.105Z,100949.81
2022-11-20T05:58:31.952Z,100957.09
2022-11-20T06:01:05.749Z,100836.16
2022-11-20T06:03:32.221Z,100946.53
2022-11-20T06:06:00.407Z,100939.53
2022-11-20T06:08:26.899Z,100942.69
2022-11-20T06:10:53.372Z,100841.81
2022-11-20T06:13:19.844Z,100956.25
2022-11-20T06:15:50.955Z,100944.78
2022-11-20T06:18:17.759Z,100854.03
2022-11-20T06:20:44.321Z,100944.34
2022-11-20T06:23:10.778Z,100952.31
2022-11-20T06:25:42.097Z,100951.28
2022-11-20T06:28:08.840Z,100954.00
2022-11-20T06:30:35.839Z,100954.75
2022-11-20T06:33:02.851Z,100952.59
2022-11-20T06:35:29.242Z,100953.47
2022-11-20T06:37:57.104Z,100941.59
2022-11-20T06:40:23.510Z,100977.81
2022-11-20T06:42:49.940Z,100937.38
2022-11-20T06:45:16.375Z,100949.06
2022-11-20T06:47:42.917Z,100948.69
2022-11-20T06:50:09.596Z,100892.81
2022-11-20T06:52:39.550Z,100854.97
2022-11-20T06:55:09.924Z,100938.44
2022-11-20T06:57:36.511Z,100943.06
2022-11-20T07:00:03.058Z,100894.56
2022-11-20T07:02:29.510Z,100941.88
2022-11-20T07:04:55.926Z,100859.41
2022-11-20T07:07:22.403Z,100943.97
2022-11-20T07:09:48.903Z,100929.16
2022-11-20T07:12:15.400Z,100899.44
2022-11-20T07:14:42.025Z,100951.38
2022-11-20T07:17:08.514Z,100940.16
2022-11-20T07:19:34.968Z,100892.09
2022-11-20T07:22:01.387Z,100949.50
2022-11-20T07:24:27.839Z,100944.19
2022-11-20T07:26:54.301Z,100940.94
2022-11-20T07:29:20.904Z,100893.09
2022-11-20T07:31:47.611Z,100943.88
2022-11-20T07:34:14.096Z,100943.53
2022-11-20T07:36:40.505Z,100945.00
2022-11-20T07:39:06.961Z,100946.97
2022-11-20T07:41:33.578Z,100938.50
2022-11-20T07:44:00.102Z,100946.84
2022-11-20T07:46:26.653Z,100899.72
2022-11-20T07:48:53.270Z,100892.28
2022-11-20T07:51:19.983Z,100920.59
2022-11-20T07:53:46.429Z,100741.94
2022-11-20T07:56:15.070Z,100940.22
2022-11-20T07:58:41.523Z,100880.53
2022-11-20T08:01:08.764Z,100930.22
2022-11-20T08:03:35.866Z,100920.22
2022-11-20T08:06:02.802Z,100885.75
2022-11-20T08:08:33.285Z,100941.34
2022-11-20T08:11:19.448Z,100937.69
2022-11-20T08:14:04.358Z,100948.31
2022-11-20T08:16:31.114Z,100871.97
2022-11-20T08:18:58.090Z,100941.22
2022-11-20T08:21:24.938Z,100941.94
2022-11-20T08:23:51.838Z,100932.75
2022-11-20T08:26:18.301Z,100928.78
2022-11-20T08:28:45.111Z,100942.16
2022-11-20T08:31:11.656Z,100942.19
2022-11-20T08:33:38.169Z,100940.53
2022-11-20T08:36:05.774Z,100901.72
2022-11-20T08:38:33.058Z,100942.13
2022-11-20T08:41:23.023Z,100945.72
2022-11-20T08:43:50.376Z,100911.97
2022-11-20T08:46:20.906Z,100925.41
2022-11-20T08:48:48.001Z,100930.44
2022-11-20T08:51:15.301Z,100951.81
2022-11-20T08:53:41.878Z,100935.66
2022-11-20T08:56:08.681Z,100947.41
2022-11-20T08:58:55.063Z,100942.72
2022-11-20T09:01:23.087Z,100943.00
2022-11-20T09:03:50.466Z,100951.09
2022-11-20T09:06:17.472Z,100918.63
2022-11-20T09:08:43.976Z,100952.50
2022-11-20T09:11:10.959Z,100887.44
2022-11-20T09:13:37.692Z,100952.41
2022-11-20T09:16:07.804Z,100893.00
2022-11-20T09:18:37.172Z,100967.03
2022-11-20T09:21:06.079Z,100901.56
2022-11-20T09:23:35.176Z,100943.84
2022-11-20T09:26:27.954Z,100896.94
2022-11-20T09:28:58.039Z,100927.28
2022-11-20T09:31:26.948Z,100949.84
2022-11-20T09:33:54.139Z,100905.75
2022-11-20T09:36:20.829Z,100935.53
2022-11-20T09:38:47.781Z,100941.63
2022-11-20T09:41:42.079Z,100926.66
2022-11-20T09:44:25.481Z,100930.03
2022-11-20T09:47:12.187Z,100950.31
2022-11-20T09:49:47.629Z,100957.16
2022-11-20T09:52:29.021Z,100900.53
2022-11-20T09:54:56.008Z,100942.47
2022-11-20T09:57:30.718Z,100950.91
2022-11-20T10:00:00.524Z,100954.38
2022-11-20T10:02:31.712Z,100948.00
2022-11-20T10:05:07.803Z,100945.34
2022-11-20T10:07:48.604Z,100945.28
2022-11-20T10:10:25.187Z,100945.88
2022-11-20T10:13:22.504Z,100949.44
2022-11-20T10:16:08.377Z,100900.44
2022-11-20T10:19:05.174Z,100947.63
2022-11-20T10:21:57.914Z,100930.81
2022-11-20T10:24:48.641Z,100938.44
2022-11-20T10:27:40.627Z,100935.38
2022-11-20T10:30:07.033Z,100944.63
2022-11-20T10:32:46.585Z,100940.53
2022-11-20T10:35:37.993Z,100934.69
2022-11-20T10:38:13.898Z,100922.50
2022-11-20T10:40:47.079Z,100927.44
2022-11-20T10:43:25.806Z,100883.84
2022-11-20T10:46:11.370Z,100930.50
2022-11-20T10:48:39.565Z,100922.09
2022-11-20T10:51:30.184Z,100916.00
2022-11-20T10:54:15.162Z,100911.34
2022-11-20T10:56:50.212Z,100824.09
2022-11-20T10:59:44.554Z,100919.84
2022-11-20T11:02:25.769Z,100913.56
2022-11-20T11:04:55.965Z,100881.44
2022-11-20T11:07:39.724Z,100917.50
2022-11-20T11:10:15.345Z,100919.59
2022-11-20T11:12:46.267Z,100713.25
2022-11-20T11:15:16.439Z,100902.00
2022-11-20T11:17:49.120Z,100889.44
2022-11-20T11:20:21.788Z,100895.59
2022-11-20T11:22:51.706Z,100915.19
2022-11-20T11:25:23.028Z,100845.69
2022-11-20T11:27:50.924Z,100895.94
2022-11-20T11:30:20.273Z,100870.66
2022-11-20T11:32:47.750Z,100884.56
2022-11-20T11:35:26.066Z,100865.84
2022-11-20T11:37:55.181Z,100899.63
2022-11-20T11:40:26.306Z,100896.78
2022-11-20T11:43:00.750Z,100898.59
2022-11-20T11:45:28.004Z,100894.63
2022-11-20T11:47:57.727Z,100894.38
2022-11-20T11:50:29.577Z,100888.28
2022-11-20T11:53:17.725Z,100887.16
2022-11-20T11:55:56.610Z,100837.22
2022-11-20T11:58:35.468Z,100887.44
2022-11-20T12:01:11.213Z,100893.44
2022-11-20T12:03:40.186Z,100892.25
2022-11-20T12:06:13.823Z,100840.19
2022-11-20T12:08:40.257Z,100895.69
2022-11-20T12:11:15.529Z,100886.03
2022-11-20T12:13:54.906Z,100885.81
2022-11-20T12:16:21.932Z,100860.50
2022-11-20T12:18:53.257Z,100825.41
2022-11-20T12:21:47.649Z,100883.78
2022-11-20T12:24:32.305Z,100882.09
2022-11-20T12:27:26.219Z,100884.50
2022-11-20T12:30:03.062Z,100845.13
2022-11-20T12:32:51.440Z,100868.19
2022-11-20T12:35:39.761Z,100860.00
2022-11-20T12:38:46.180Z,100868.19
2022-11-20T12:42:06.678Z,100857.41
2022-11-20T12:45:10.760Z,100757.38
2022-11-20T12:48:09.574Z,100850.88
2022-11-20T12:51:15.506Z,100855.97
2022-11-20T12:54:00.288Z,100839.72
2022-11-20T12:56:53.619Z,100853.16
2022-11-20T12:59:35.883Z,100849.34
2022-11-20T13:02:45.481Z,100848.50
2022-11-20T13:05:29.961Z,100854.84
2022-11-20T13:07:58.276Z,100849.22
2022-11-20T13:10:44.521Z,100837.25
2022-11-20T13:13:13.959Z,100846.00
2022-11-20T13:16:00.697Z,100843.63
2022-11-20T13:18:27.615Z,100839.13
2022-11-20T13:20:54.305Z,100842.31
2022-11-20T13:23:29.837Z,100823.25
2022-11-20T13:26:14.803Z,100801.59
2022-11-20T13:28:41.901Z,100827.19
2022-11-20T13:31:30.287Z,100779.09
2022-11-20T13:33:57.828Z,100830.72
2022-11-20T13:36:27.423Z,100757.03
2022-11-20T13:38:55.704Z,100836.63
2022-11-20T13:41:32.306Z,100838.63
2022-11-20T13:44:25.108Z,100825.78
2022-11-20T13:46:51.774Z,100800.72
2022-11-20T13:49:27.206Z,100823.63
2022-11-20T13:52:08.754Z,100786.03
2022-11-20T13:54:59.246Z,100818.22
2022-11-20T13:57:34.758Z,100814.63
2022-11-20T14:00:15.160Z,100714.06
2022-11-20T14:02:42.195Z,100811.31
2022-11-20T14:05:20.305Z,100813.03
2022-11-20T14:07:48.185Z,100804.06
2022-11-20T14:10:31.389Z,100802.94
2022-11-20T14:12:58.399Z,100807.25
2022-11-20T14:15:25.507Z,100807.72
2022-11-20T14:17:52.024Z,100799.25
2022-11-20T14:20:24.082Z,100774.41
2022-11-20T14:22:51.709Z,100798.91
2022-11-20T14:25:18.081Z,100798.84
2022-11-20T14:27:48.903Z,100797.72
2022-11-20T14:30:19.195Z,100795.91
2022-11-20T14:32:47.322Z,100800.22
2022-11-20T14:35:27.310Z,100795.81
2022-11-20T14:37:54.854Z,100797.47
2022-11-20T14:40:37.241Z,100798.84
2022-11-20T14:43:27.291Z,100796.09
2022-11-20T14:46:00.326Z,100764.81
2022-11-20T14:48:39.344Z,100800.72
2022-11-20T14:51:05.874Z,100799.38
2022-11-20T14:53:32.357Z,100790.84
2022-11-20T14:56:01.357Z,100742.47
2022-11-20T14:58:30.427Z,100795.22
2022-11-20T15:01:01.004Z,100786.56
2022-11-20T15:03:38.942Z,100787.47
2022-11-20T15:06:12.239Z,100785.75
2022-11-20T15:08:38.817Z,100774.13
2022-11-20T15:11:19.215Z,100780.94
2022-11-20T15:13:45.723Z,100772.34
2022-11-20T15:16:20.513Z,100749.50
2022-11-20T15:18:47.802Z,100782.31
2022-11-20T15:21:19.569Z,100710.84
2022-11-20T15:23:46.515Z,100768.16
2022-11-20T15:26:19.808Z,100781.75
2022-11-20T15:28:51.382Z,100779.94
2022-11-20T15:31:21.304Z,100773.03
2022-11-20T15:33:48.483Z,100778.09
2022-11-20T15:36:15.287Z,100768.16
2022-11-20T15:38:41.753Z,100725.88
2022-11-20T15:41:09.065Z,100763.59
2022-11-20T15:43:35.742Z,100675.69
2022-11-20T15:46:10.141Z,100757.34
2022-11-20T15:48:47.350Z,100724.06
2022-11-20T15:51:36.542Z,100742.88
2022-11-20T15:54:12.477Z,100691.22
2022-11-20T15:56:38.917Z,100751.94
2022-11-20T15:59:05.434Z,100755.59
2022-11-20T16:01:32.122Z,100737.22
2022-11-20T16:03:58.740Z,100752.78
2022-11-20T16:06:25.210Z,100739.88
2022-11-20T16:08:51.651Z,100598.81
2022-11-20T16:11:18.823Z,100736.38
2022-11-20T16:14:04.252Z,100743.56
2022-11-20T16:16:34.437Z,100730.25
2022-11-20T16:19:01.442Z,100731.97
2022-11-20T16:21:32.349Z,100747.63
2022-11-20T16:24:04.292Z,100727.16
2022-11-20T16:26:31.638Z,100731.47
2022-11-20T16:29:00.128Z,100693.31
2022-11-20T16:31:26.758Z,100725.47
2022-11-20T16:33:55.125Z,100731.81
2022-11-20T16:36:23.778Z,100726.41
2022-11-20T16:38:55.285Z,100713.44
2022-11-20T16:41:22.477Z,100651.81
2022-11-20T16:43:54.369Z,100664.19
2022-11-20T16:46:22.821Z,100721.94
2022-11-20T16:49:04.917Z,100729.63
2022-11-20T16:51:34.817Z,100724.22
2022-11-20T16:54:06.006Z,100718.72
2022-11-20T16:56:33.111Z,100714.06
2022-11-20T16:59:01.018Z,100722.78
2022-11-20T17:01:29.285Z,100713.41
2022-11-20T17:04:02.285Z,100709.97
2022-11-20T17:06:35.753Z,100717.38
2022-11-20T17:09:03.568Z,100680.19
2022-11-20T17:11:30.212Z,100655.00
2022-11-20T17:14:00.594Z,100707.47
2022-11-20T17:16:27.342Z,100715.72
2022-11-20T17:19:02.559Z,100712.28
2022-11-20T17:21:30.049Z,100702.66
2022-11-20T17:23:56.662Z,100706.38
2022-11-20T17:26:23.951Z,100680.25
2022-11-20T17:28:59.749Z,100688.41
2022-11-20T17:31:27.804Z,100633.84
2022-11-20T17:33:54.291Z,100656.63
2022-11-20T17:36:21.661Z,100652.78
2022-11-20T17:38:48.985Z,100669.00
2022-11-20T17:41:18.040Z,100695.09
2022-11-20T17:43:45.269Z,100692.28
2022-11-20T17:46:17.559Z,100693.03
2022-11-20T17:48:45.536Z,100698.19
2022-11-20T17:51:15.083Z,100695.94
2022-11-20T17:53:44.242Z,100691.47
2022-11-20T17:56:29.659Z,100696.19
2022-11-20T17:58:56.147Z,100693.13
2022-11-20T18:01:24.055Z,100686.22
2022-11-20T18:03:50.593Z,100684.50
2022-11-20T18:06:19.868Z,100635.00
2022-11-20T18:08:50.126Z,100664.53
2022-11-20T18:11:16.494Z,100689.22
2022-11-20T18:14:02.539Z,100692.13
2022-11-20T18:16:32.044Z,100693.16
2022-11-20T18:18:59.497Z,100682.91
2022-11-20T18:21:27.602Z,100700.03
2022-11-20T18:23:58.100Z,100697.38
2022-11-20T18:26:24.700Z,100696.34
2022-11-20T18:28:51.359Z,100615.50
2022-11-20T18:31:18.674Z,100687.56
2022-11-20T18:33:45.956Z,100683.28
2022-11-20T18:36:13.423Z,100679.59
2022-11-20T18:38:44.853Z,100678.59
2022-11-20T18:41:31.231Z,100641.13
2022-11-20T18:44:16.608Z,100623.97
2022-11-20T18:46:43.874Z,100679.63
2022-11-20T18:49:12.195Z,100679.38
2022-11-20T18:51:39.190Z,100678.34
2022-11-20T18:54:06.125Z,100639.19
2022-11-20T18:56:34.615Z,100669.78
2022-11-20T18:59:02.182Z,100664.38
2022-11-20T19:01:28.974Z,100666.94
2022-11-20T19:03:55.798Z,100669.53
2022-11-20T19:06:22.610Z,100666.78
2022-11-20T19:08:49.173Z,100656.31
2022-11-20T19:11:15.622Z,100663.88
2022-11-20T19:13:42.035Z,100671.31
2022-11-20T19:16:18.084Z,100664.84
2022-11-20T19:18:45.840Z,100572.06
2022-11-20T19:21:17.377Z,100654.34
2022-11-20T19:23:47.300Z,100658.16
2022-11-20T19:26:14.142Z,100589.66
2022-11-20T19:28:40.705Z,100634.59
2022-11-20T19:31:13.149Z,100645.91
2022-11-20T19:33:40.048Z,100576.25
2022-11-20T19:36:18.602Z,100623.97
2022-11-20T19:38:48.611Z,100590.91
2022-11-20T19:41:16.867Z,100629.91
2022-11-20T19:43:43.374Z,100610.75
2022-11-20T19:46:12.632Z,100627.66
2022-11-20T19:48:39.090Z,100622.09
2022-11-20T19:51:11.208Z,100614.84
2022-11-20T19:53:38.182Z,100623.56
2022-11-20T19:56:05.265Z,100550.56
2022-11-20T19:58:31.831Z,100503.09
2022-11-20T20:01:05.063Z,100591.16
2022-11-20T20:03:32.327Z,100605.50
2022-11-20T20:06:04.081Z,100592.50
2022-11-20T20:08:31.550Z,100596.31
2022-11-20T20:10:59.721Z,100586.09
2022-11-20T20:13:26.923Z,100529.53
2022-11-20T20:15:53.403Z,100578.88
2022-11-20T20:18:19.856Z,100546.78
2022-11-20T20:20:46.404Z,100471.91
2022-11-20T20:23:12.923Z,100575.34
2022-11-20T20:25:39.439Z,100538.72
2022-11-20T20:28:06.018Z,100481.44
2022-11-20T20:30:32.556Z,100538.41
2022-11-20T20:32:59.045Z,100589.25
2022-11-20T20:35:25.574Z,100366.69
2022-11-20T20:37:51.981Z,100574.31
2022-11-20T20:40:19.333Z,100517.72
2022-11-20T20:42:45.895Z,100458.09
2022-11-20T20:45:12.384Z,100583.59
2022-11-20T20:47:40.324Z,100581.19
2022-11-20T20:50:10.464Z,100575.69
2022-11-20T20:52:37.027Z,100571.44
2022-11-20T20:55:04.474Z,100561.56
2022-11-20T20:57:30.960Z,100536.00
2022-11-20T20:59:57.417Z,100441.69
2022-11-20T21:02:24.279Z,100571.63
2022-11-20T21:04:51.114Z,100558.97
2022-11-20T21:07:18.110Z,100481.16
2022-11-20T21:09:44.975Z,100570.69
2022-11-20T21:12:11.436Z,100536.13
2022-11-20T21:14:37.956Z,100567.63
2022-11-20T21:17:04.434Z,100562.47
2022-11-20T21:19:31.960Z,100568.41
2022-11-20T21:22:02.957Z,100555.31
2022-11-20T21:24:30.735Z,100563.56
2022-11-20T21:26:57.912Z,100568.88
2022-11-20T21:29:25.729Z,100544.72
2022-11-20T21:31:53.351Z,100566.28
2022-11-20T21:34:21.382Z,100528.25
2022-11-20T21:36:48.638Z,100467.84
2022-11-20T21:39:15.777Z,100523.78
2022-11-20T21:41:42.780Z,100526.22
2022-11-20T21:47:00.571Z,100469.59
2022-11-20T21:49:26.983Z,100532.53
2022-11-20T21:51:53.815Z,100510.91
2022-11-20T21:54:20.261Z,100527.47
2022-11-20T21:56:46.722Z,100533.00
2022-11-20T21:59:13.979Z,100533.28
2022-11-20T22:01:41.644Z,100533.56
2022-11-20T22:04:13.201Z,100527.56
2022-11-20T22:06:39.681Z,100515.53
2022-11-20T22:09:06.189Z,100523.47
2022-11-20T22:11:32.815Z,100498.06
2022-11-20T22:14:17.627Z,100437.00
2022-11-20T22:16:44.141Z,100511.66
2022-11-20T22:19:10.582Z,100416.66
2022-11-20T22:21:39.482Z,100512.59
2022-11-20T22:24:06.208Z,100507.38
2022-11-20T22:26:39.953Z,100509.63
2022-11-20T22:29:07.143Z,100512.47
2022-11-20T22:31:33.715Z,100476.56
2022-11-20T22:34:02.356Z,100516.03
2022-11-20T22:36:30.391Z,100444.03
2022-11-20T22:38:56.859Z,100513.97
2022-11-20T22:41:28.316Z,100502.06
2022-11-20T22:43:56.611Z,100439.22
2022-11-20T22:46:23.885Z,100476.69
2022-11-20T22:48:58.549Z,100514.25
2022-11-20T22:51:27.251Z,100515.16
2022-11-20T22:53:54.249Z,100515.31
2022-11-20T22:56:21.467Z,100506.44
2022-11-20T22:58:50.719Z,100510.47
2022-11-20T23:01:21.264Z,100545.13
2022-11-20T23:03:49.739Z,100509.75
2022-11-20T23:06:18.553Z,100515.28
2022-11-20T23:08:45.746Z,100492.34
2022-11-20T23:11:14.885Z,100512.31
2022-11-20T23:13:42.369Z,100507.44
2022-11-20T23:16:11.752Z,100510.22
2022-11-20T23:18:38.594Z,100509.50
2022-11-20T23:21:19.301Z,100501.78
2022-11-20T23:23:50.690Z,100503.41
2022-11-20T23:26:19.206Z,100499.84
2022-11-20T23:28:45.770Z,100493.75
2022-11-20T23:31:13.816Z,100456.59
2022-11-20T23:33:42.553Z,100454.41
2022-11-20T23:36:09.647Z,100330.47
2022-11-20T23:38:36.164Z,100479.75
2022-11-20T23:41:03.313Z,100483.19
2022-11-20T23:43:29.862Z,100346.91
2022-11-20T23:45:58.632Z,100479.94
2022-11-20T23:48:28.171Z,100470.41
2022-11-20T23:50:54.981Z,100473.28
2022-11-20T23:53:22.193Z,100467.06
2022-11-20T23:55:51.374Z,100467.13
2022-11-20T23:58:19.020Z,100470.56
